Time;durP1;ratioP1;P1;durP2;ratioP2;P2;SDS_P1;SDS_P2;PMS_P1;PMS_P2;Temp;Humidity;BMP_temperature;BMP_pressure;BME280_temperature;BME280_humidity;BME280_pressure;Samples;Min_cycle;Max_cycle;Signal;HPM_P1;HPM_P2
2021/10/26 00:00:22;;;;;;;;;19.50;17.00;;;;;12.45;73.61;101318.47;5078034;28;60362;-60
2021/10/26 00:02:47;;;;;;;;;21.50;19.50;;;;;12.43;72.98;101320.38;5077731;28;63792;-60
2021/10/26 00:05:13;;;;;;;;;20.50;17.00;;;;;12.41;73.42;101320.53;5078258;28;46753;-60
2021/10/26 00:07:38;;;;;;;;;24.00;18.75;;;;;12.39;73.47;101327.72;5078212;28;45919;-60
2021/10/26 00:10:05;;;;;;;;;21.75;19.00;;;;;12.36;73.44;101324.50;5077439;28;66340;-60
2021/10/26 00:12:31;;;;;;;;;19.00;18.50;;;;;12.35;73.46;101331.59;5078454;28;45455;-60
2021/10/26 00:14:58;;;;;;;;;21.25;18.00;;;;;12.32;73.21;101326.56;5077260;28;45306;-60
2021/10/26 00:17:23;;;;;;;;;19.00;17.25;;;;;12.28;73.04;101325.97;5076840;28;47605;-60
2021/10/26 00:19:48;;;;;;;;;16.25;16.00;;;;;12.25;72.85;101331.50;5078250;27;45484;-60
2021/10/26 00:22:14;;;;;;;;;20.50;19.25;;;;;12.24;73.41;101331.63;5077132;27;64910;-60
2021/10/26 00:24:39;;;;;;;;;18.50;16.00;;;;;12.20;72.86;101323.13;5077228;27;64463;-60
2021/10/26 00:27:05;;;;;;;;;17.75;15.75;;;;;12.17;73.11;101324.25;5077844;28;46307;-60
2021/10/26 00:29:30;;;;;;;;;21.75;18.00;;;;;12.14;72.97;101329.75;5078006;28;45248;-60
2021/10/26 00:31:55;;;;;;;;;21.00;16.00;;;;;12.12;73.50;101329.03;5077342;28;59682;-60
2021/10/26 00:34:21;;;;;;;;;14.50;13.25;;;;;12.10;73.23;101327.53;5076776;27;45360;-60
2021/10/26 00:36:49;;;;;;;;;16.75;15.75;;;;;12.07;72.81;101335.66;5077473;28;58391;-60
2021/10/26 00:39:14;;;;;;;;;20.25;16.00;;;;;12.02;72.92;101336.88;5077878;28;45223;-60
2021/10/26 00:41:40;;;;;;;;;19.00;16.50;;;;;12.00;72.80;101332.69;5078096;27;45223;-59
2021/10/26 00:44:05;;;;;;;;;17.75;16.50;;;;;11.96;72.32;101339.97;5077962;28;45328;-60
2021/10/26 00:46:35;;;;;;;;;24.75;19.75;;;;;11.93;72.41;101337.59;5077531;28;45402;-60
2021/10/26 00:49:01;;;;;;;;;20.50;18.25;;;;;11.90;72.39;101343.13;5077683;28;45810;-60
2021/10/26 00:51:28;;;;;;;;;23.75;18.00;;;;;11.88;72.32;101339.75;5077738;28;45252;-61
2021/10/26 00:53:54;;;;;;;;;18.75;16.00;;;;;11.84;72.31;101343.59;5077769;27;45241;-60
2021/10/26 00:56:20;;;;;;;;;19.00;17.75;;;;;11.79;71.69;101343.13;5077566;28;45844;-60
2021/10/26 00:58:46;;;;;;;;;23.00;18.50;;;;;11.73;71.98;101342.66;5077359;27;45862;-60
2021/10/26 01:01:11;;;;;;;;;17.00;16.00;;;;;11.70;71.91;101342.91;5077612;28;45330;-60
2021/10/26 01:03:36;;;;;;;;;20.00;17.75;;;;;11.66;71.42;101346.75;5076251;27;45318;-60
2021/10/26 01:06:02;;;;;;;;;17.00;15.00;;;;;11.64;71.84;101347.84;5076791;27;58554;-59
2021/10/26 01:08:28;;;;;;;;;16.00;15.75;;;;;11.60;71.40;101349.06;5076170;28;45453;-60
2021/10/26 01:10:53;;;;;;;;;19.75;15.00;;;;;11.54;71.29;101342.50;5076138;27;45472;-60
2021/10/26 01:13:19;;;;;;;;;14.75;13.75;;;;;11.51;70.99;101337.47;5076279;28;45403;-60
2021/10/26 01:15:46;;;;;;;;;14.00;13.75;;;;;11.45;71.40;101341.41;5076060;28;45381;-60
2021/10/26 01:18:12;;;;;;;;;14.50;13.00;;;;;11.41;70.83;101347.88;5077196;27;45912;-60
2021/10/26 01:20:37;;;;;;;;;12.00;11.25;;;;;11.36;71.09;101355.31;5059312;28;45408;-60
2021/10/26 01:23:02;;;;;;;;;15.25;13.00;;;;;11.32;71.18;101352.09;5076405;28;59606;-59
2021/10/26 01:25:28;;;;;;;;;15.00;13.00;;;;;11.28;70.58;101351.50;5076895;27;45409;-59
2021/10/26 01:27:54;;;;;;;;;18.50;13.00;;;;;11.24;70.69;101357.97;5076869;28;45374;-60
2021/10/26 01:30:26;;;;;;;;;15.75;12.00;;;;;11.19;71.08;101354.00;5077110;28;45366;-60
2021/10/26 01:32:51;;;;;;;;;11.75;10.25;;;;;11.16;71.20;101351.59;5075887;28;45312;-60
2021/10/26 01:35:16;;;;;;;;;11.25;11.25;;;;;11.13;71.45;101350.88;5075473;28;55936;-61
2021/10/26 01:37:42;;;;;;;;;11.00;11.00;;;;;11.10;71.39;101343.25;5075782;28;45253;-60
2021/10/26 01:40:08;;;;;;;;;17.50;13.75;;;;;11.10;71.39;101355.56;5077115;28;45369;-60
2021/10/26 01:42:34;;;;;;;;;15.50;13.00;;;;;11.07;71.12;101346.13;5076779;28;45612;-60
2021/10/26 01:44:59;;;;;;;;;13.50;11.25;;;;;11.04;71.28;101338.47;5076823;28;45313;-60
2021/10/26 01:47:24;;;;;;;;;14.75;11.25;;;;;11.02;70.99;101347.41;5076862;28;45369;-60
2021/10/26 01:49:50;;;;;;;;;12.75;11.00;;;;;10.96;70.53;101343.50;5076840;27;45289;-60
2021/10/26 01:52:15;;;;;;;;;11.75;11.00;;;;;10.90;70.24;101351.84;5076941;28;45532;-60
2021/10/26 01:54:41;;;;;;;;;12.75;11.25;;;;;10.86;70.50;101353.03;5075531;28;74706;-60
2021/10/26 01:57:06;;;;;;;;;13.00;12.75;;;;;10.82;70.49;101358.53;5075810;28;70145;-60
2021/10/26 01:59:32;;;;;;;;;19.00;15.75;;;;;10.78;70.30;101351.00;5076839;28;45374;-60
2021/10/26 02:01:58;;;;;;;;;15.00;12.75;;;;;10.76;70.66;101353.72;5075488;28;45379;-60
2021/10/26 02:04:24;;;;;;;;;13.00;12.00;;;;;10.74;70.50;101355.63;5076535;28;46155;-61
2021/10/26 02:06:49;;;;;;;;;15.75;13.50;;;;;10.72;70.83;101349.66;5076718;28;45273;-60
2021/10/26 02:09:14;;;;;;;;;13.00;13.00;;;;;10.71;70.77;101355.88;5076024;28;56842;-60
2021/10/26 02:11:40;;;;;;;;;15.25;13.00;;;;;10.67;70.49;101346.53;5075940;28;59267;-60
2021/10/26 02:14:06;;;;;;;;;14.25;11.75;;;;;10.64;70.31;101349.41;5075745;28;67577;-60
2021/10/26 02:16:31;;;;;;;;;13.25;11.00;;;;;10.58;69.92;101355.16;5076445;27;45234;-60
2021/10/26 02:18:57;;;;;;;;;13.00;9.75;;;;;10.52;69.73;101356.44;5076482;28;45359;-60
2021/10/26 02:21:22;;;;;;;;;10.50;9.00;;;;;10.47;69.88;101363.81;5076450;27;45552;-61
2021/10/26 02:23:47;;;;;;;;;12.50;10.00;;;;;10.44;69.97;101358.78;5075144;28;69892;-60
2021/10/26 02:26:13;;;;;;;;;10.75;8.75;;;;;10.42;70.19;101366.81;5076318;28;45386;-60
2021/10/26 02:28:39;;;;;;;;;10.75;10.75;;;;;10.40;70.25;101366.06;5075145;28;45385;-60
2021/10/26 02:31:04;;;;;;;;;12.75;9.25;;;;;10.37;70.60;101368.91;5075295;28;63195;-60
2021/10/26 02:33:29;;;;;;;;;10.50;8.75;;;;;10.32;70.70;101365.78;5075629;28;65058;-61
2021/10/26 02:35:55;;;;;;;;;9.50;8.00;;;;;10.30;70.50;101367.69;5075870;28;53161;-60
2021/10/26 02:38:20;;;;;;;;;7.25;7.25;;;;;10.23;70.62;101365.50;5077203;27;46510;-60
2021/10/26 02:40:45;;;;;;;;;10.00;7.50;;;;;10.20;70.36;101370.97;5079885;27;45331;-60
2021/10/26 02:43:11;;;;;;;;;10.00;8.50;;;;;10.17;70.33;101367.75;5079070;28;61132;-60
2021/10/26 02:45:37;;;;;;;;;11.25;9.25;;;;;10.13;69.97;101361.03;5078972;28;60321;-60
2021/10/26 02:48:03;;;;;;;;;10.50;10.50;;;;;10.07;70.41;101363.16;5079775;28;45373;-60
2021/10/26 02:50:29;;;;;;;;;12.00;11.00;;;;;10.06;70.21;101363.28;5079558;28;45279;-60
2021/10/26 02:52:54;;;;;;;;;9.50;9.00;;;;;10.04;70.51;101367.81;5078765;27;66550;-60
2021/10/26 02:55:19;;;;;;;;;9.00;7.00;;;;;10.02;70.41;101369.72;5078561;28;70957;-60
2021/10/26 02:57:46;;;;;;;;;14.50;8.00;;;;;10.00;70.62;101377.69;5078643;28;63870;-60
2021/10/26 03:00:11;;;;;;;;;12.00;11.50;;;;;9.97;70.62;101374.47;5078328;28;45729;-60
2021/10/26 03:02:38;;;;;;;;;15.00;12.75;;;;;9.97;71.04;101383.16;5079071;28;51172;-60
2021/10/26 03:05:04;;;;;;;;;11.75;10.50;;;;;9.95;71.15;101378.03;5079272;28;45942;-60
2021/10/26 03:07:30;;;;;;;;;12.75;12.25;;;;;9.96;71.03;101381.47;5079331;28;45283;-60
2021/10/26 03:09:55;;;;;;;;;19.25;15.00;;;;;9.95;71.33;101375.41;5079182;27;45297;-60
2021/10/26 03:12:20;;;;;;;;;18.75;17.50;;;;;9.98;71.72;101378.75;5078201;27;74664;-60
2021/10/26 03:14:46;;;;;;;;;18.75;15.25;;;;;9.98;72.12;101379.59;5078337;28;65556;-60
2021/10/26 03:17:11;;;;;;;;;17.25;15.25;;;;;9.97;72.25;101374.47;5078352;27;65607;-60
2021/10/26 03:19:37;;;;;;;;;16.75;15.00;;;;;9.97;72.17;101371.84;5079173;28;45529;-60
2021/10/26 03:22:02;;;;;;;;;14.75;11.75;;;;;9.95;71.79;101382.44;5078916;28;46331;-60
2021/10/26 03:24:28;;;;;;;;;16.75;13.00;;;;;9.94;71.58;101373.72;5078861;27;45381;-60
2021/10/26 03:26:54;;;;;;;;;18.50;14.25;;;;;9.93;71.87;101368.56;5077986;28;45859;-60
2021/10/26 03:29:20;;;;;;;;;18.25;14.00;;;;;9.92;71.83;101377.41;5079013;28;45314;-60
2021/10/26 03:31:46;;;;;;;;;23.25;18.00;;;;;9.91;71.42;101379.22;5078341;28;58840;-60
2021/10/26 03:34:12;;;;;;;;;12.00;12.00;;;;;9.89;71.84;101377.63;5078709;28;45780;-60
2021/10/26 03:36:37;;;;;;;;;15.75;15.75;;;;;9.88;72.10;101386.44;5078891;28;45300;-60
2021/10/26 03:39:03;;;;;;;;;15.75;15.75;;;;;9.85;72.05;101382.28;5078291;28;50154;-60
2021/10/26 03:41:28;;;;;;;;;16.25;16.00;;;;;9.84;72.12;101387.63;5078337;28;54846;-60
2021/10/26 03:43:54;;;;;;;;;15.75;14.50;;;;;9.81;72.25;101388.69;5077590;27;45459;-60
2021/10/26 03:46:19;;;;;;;;;18.50;11.75;;;;;9.81;71.96;101393.94;5078710;28;45284;-60
2021/10/26 03:48:44;;;;;;;;;13.50;13.50;;;;;9.78;72.19;101395.00;5077548;28;65640;-60
2021/10/26 03:51:10;;;;;;;;;18.00;15.75;;;;;9.78;72.29;101391.53;5077436;28;46542;-60
2021/10/26 03:53:36;;;;;;;;;15.50;15.25;;;;;9.77;72.50;101392.47;5078635;27;45395;-60
2021/10/26 03:56:03;;;;;;;;;16.25;14.75;;;;;9.75;72.69;101394.38;5078632;28;45326;-60
2021/10/26 03:58:28;;;;;;;;;18.75;16.00;;;;;9.73;72.57;101393.63;5076925;27;45352;-60
2021/10/26 04:00:53;;;;;;;;;17.75;15.25;;;;;9.72;73.02;101394.59;5078246;28;45309;-60
2021/10/26 04:03:19;;;;;;;;;13.50;13.50;;;;;9.70;73.54;101393.84;5077883;28;45451;-60
2021/10/26 04:10:48;;;;;;;;;20.00;15.75;;;;;9.65;74.01;101396.81;5077246;28;47162;-60
2021/10/26 04:13:13;;;;;;;;;20.75;18.75;;;;;9.65;73.67;101399.44;5077668;28;46042;-60
2021/10/26 04:15:39;;;;;;;;;18.75;16.00;;;;;9.66;73.16;101401.13;5077226;28;59995;-60
2021/10/26 04:18:04;;;;;;;;;17.00;15.75;;;;;9.63;73.11;101399.53;5078113;27;45560;-60
2021/10/26 04:20:30;;;;;;;;;15.50;14.00;;;;;9.62;73.35;101408.34;5077964;28;45460;-60
2021/10/26 04:22:55;;;;;;;;;18.00;16.50;;;;;9.59;73.50;101403.31;5077997;28;45498;-60
2021/10/26 04:25:21;;;;;;;;;14.75;13.50;;;;;9.58;73.29;101408.69;5076147;28;60431;-60
2021/10/26 04:27:46;;;;;;;;;19.00;16.00;;;;;9.56;73.28;101408.78;5077755;27;45656;-60
2021/10/26 04:30:12;;;;;;;;;18.75;17.50;;;;;9.57;73.31;101407.84;5077720;27;45448;-60
2021/10/26 04:32:37;;;;;;;;;18.50;17.50;;;;;9.57;73.32;101404.38;5076219;27;60467;-60
2021/10/26 04:35:03;;;;;;;;;22.50;19.00;;;;;9.58;73.42;101406.06;5078159;28;45629;-60
2021/10/26 04:37:29;;;;;;;;;24.25;19.00;;;;;9.56;73.14;101414.03;5077881;27;45375;-60
2021/10/26 04:39:54;;;;;;;;;25.25;23.50;;;;;9.57;73.20;101415.72;5077649;28;46436;-60
2021/10/26 04:42:19;;;;;;;;;17.00;14.50;;;;;9.58;72.94;101420.00;5075527;28;71612;-60
2021/10/26 04:44:45;;;;;;;;;16.75;15.25;;;;;9.56;72.87;101421.91;5076180;28;60833;-60
2021/10/26 04:47:10;;;;;;;;;15.00;14.00;;;;;9.54;72.94;101418.53;5076873;28;65427;-60
2021/10/26 04:49:36;;;;;;;;;13.75;13.75;;;;;9.56;72.95;101427.16;5077055;28;61230;-60
2021/10/26 04:52:01;;;;;;;;;16.25;15.00;;;;;9.56;72.65;101429.78;5077600;28;45334;-59
2021/10/26 04:54:27;;;;;;;;;19.25;17.00;;;;;9.55;72.84;101430.72;5077838;28;45346;-60
2021/10/26 04:56:53;;;;;;;;;15.25;15.00;;;;;9.55;72.92;101429.91;5077779;28;45562;-59
2021/10/26 04:59:18;;;;;;;;;18.00;17.75;;;;;9.55;72.70;101432.50;5076663;28;72981;-60
2021/10/26 05:01:44;;;;;;;;;15.50;14.50;;;;;9.53;72.90;101437.03;5076213;28;65204;-60
2021/10/26 05:04:09;;;;;;;;;18.00;16.00;;;;;9.53;72.69;101434.41;5076674;28;65592;-60
2021/10/26 05:06:34;;;;;;;;;22.50;18.50;;;;;9.53;72.78;101437.88;5076275;27;45276;-60
2021/10/26 05:09:02;;;;;;;;;18.25;16.00;;;;;9.51;72.54;101426.66;5077326;28;45382;-60
2021/10/26 05:11:27;;;;;;;;;19.25;17.75;;;;;9.50;72.62;101432.84;5077270;28;45873;-60
2021/10/26 05:13:53;;;;;;;;;37.50;29.00;;;;;9.49;72.77;101436.41;5076565;28;61273;-60
2021/10/26 05:16:19;;;;;;;;;17.75;15.25;;;;;9.49;72.96;101436.41;5076312;27;67200;-60
2021/10/26 05:18:49;;;;;;;;;19.25;14.75;;;;;9.51;72.99;101437.16;5075780;27;46221;-59
2021/10/26 05:21:20;;;;;;;;;23.25;20.00;;;;;9.53;72.99;101440.50;5077126;27;45426;-60
2021/10/26 05:23:47;;;;;;;;;25.25;20.50;;;;;9.53;73.23;101437.88;5077025;28;45449;-60
2021/10/26 05:26:12;;;;;;;;;21.75;18.75;;;;;9.54;72.96;101442.16;5077278;28;45231;-60
2021/10/26 05:28:38;;;;;;;;;20.50;18.50;;;;;9.55;72.69;101446.47;5075519;27;46043;-60
2021/10/26 05:31:03;;;;;;;;;20.00;17.50;;;;;9.55;72.95;101448.25;5076772;27;45409;-60
2021/10/26 05:33:29;;;;;;;;;18.50;16.75;;;;;9.55;72.91;101443.00;5076451;28;58127;-60
2021/10/26 05:35:54;;;;;;;;;19.50;17.00;;;;;9.54;73.02;101444.78;5075211;27;45436;-60
2021/10/26 05:38:20;;;;;;;;;19.50;17.50;;;;;9.57;73.03;101449.00;5075861;28;61085;-60
2021/10/26 05:40:45;;;;;;;;;24.75;21.25;;;;;9.57;72.93;101454.25;5076708;28;45449;-60
2021/10/26 05:43:11;;;;;;;;;21.25;20.00;;;;;9.57;73.30;101468.19;5076930;27;45536;-60
2021/10/26 05:45:36;;;;;;;;;20.00;18.50;;;;;9.57;73.04;101465.56;5074829;27;62186;-60
2021/10/26 05:48:01;;;;;;;;;24.00;20.25;;;;;9.59;73.12;101465.47;5076689;28;45979;-60
2021/10/26 05:50:27;;;;;;;;;25.00;19.75;;;;;9.61;73.35;101471.44;5075518;28;66862;-60
2021/10/26 05:52:52;;;;;;;;;27.50;24.75;;;;;9.62;73.14;101473.94;5076650;28;45294;-60
2021/10/26 05:55:18;;;;;;;;;21.75;19.00;;;;;9.63;73.19;101466.94;5076811;28;45622;-60
2021/10/26 05:57:43;;;;;;;;;24.00;19.00;;;;;9.64;73.46;101472.06;5075914;28;65929;-60
2021/10/26 06:00:09;;;;;;;;;24.75;21.75;;;;;9.68;73.70;101477.09;5075810;28;67975;-60
2021/10/26 06:02:34;;;;;;;;;22.75;22.50;;;;;9.72;73.88;101483.81;5076441;27;45298;-60
2021/10/26 06:05:00;;;;;;;;;22.25;19.25;;;;;9.73;73.86;101486.34;5075759;28;59533;-60
2021/10/26 06:07:25;;;;;;;;;23.50;19.00;;;;;9.75;73.95;101481.84;5076338;28;46780;-60
2021/10/26 06:09:50;;;;;;;;;23.75;22.75;;;;;9.78;74.04;101488.63;5076454;28;45565;-60
2021/10/26 06:12:24;;;;;;;;;22.50;19.50;;;;;9.81;73.89;101493.66;5076585;28;45617;-60
2021/10/26 06:14:49;;;;;;;;;22.50;17.75;;;;;9.84;73.56;101496.09;5080036;28;45373;-60
2021/10/26 06:17:15;;;;;;;;;21.00;19.75;;;;;9.86;73.98;101483.69;5079009;27;74741;-60
2021/10/26 06:19:40;;;;;;;;;23.75;19.25;;;;;9.89;73.75;101493.97;5080002;28;45317;-60
2021/10/26 06:22:06;;;;;;;;;20.00;18.75;;;;;9.90;74.27;101493.03;5077784;27;65253;-60
2021/10/26 06:24:31;;;;;;;;;17.50;14.50;;;;;9.93;74.50;101484.94;5079303;28;63131;-60
2021/10/26 06:26:56;;;;;;;;;20.25;17.50;;;;;9.94;74.75;101489.25;5077828;28;68960;-60
2021/10/26 06:29:22;;;;;;;;;15.75;13.75;;;;;9.97;74.79;101492.59;5079790;28;45270;-59
2021/10/26 06:31:47;;;;;;;;;20.50;16.50;;;;;9.96;75.22;101502.25;5079324;27;57923;-60
2021/10/26 06:34:13;;;;;;;;;20.75;16.75;;;;;9.97;75.26;101496.06;5079904;28;45517;-60
2021/10/26 06:36:38;;;;;;;;;27.75;20.00;;;;;9.99;75.39;101493.34;5078985;27;64525;-64
2021/10/26 06:39:04;;;;;;;;;16.50;14.50;;;;;10.00;75.29;101495.00;5079267;28;45223;-60
2021/10/26 06:41:29;;;;;;;;;15.50;15.50;;;;;10.01;75.71;101499.31;5078502;28;45415;-60
2021/10/26 06:43:54;;;;;;;;;15.75;13.00;;;;;10.01;75.52;101505.41;5079663;28;45581;-60
2021/10/26 06:46:20;;;;;;;;;17.25;16.25;;;;;10.01;75.37;101505.41;5078520;28;65301;-60
2021/10/26 06:48:46;;;;;;;;;14.50;14.00;;;;;10.03;75.73;101510.56;5078736;27;60889;-60
2021/10/26 06:51:11;;;;;;;;;16.25;13.75;;;;;10.04;75.72;101522.72;5077659;27;45362;-60
2021/10/26 06:53:39;;;;;;;;;17.75;12.50;;;;;10.06;76.01;101528.72;5079109;27;50542;-60
2021/10/26 06:56:09;;;;;;;;;19.25;15.00;;;;;10.08;75.72;101530.28;5079337;27;45322;-60
2021/10/26 06:58:35;;;;;;;;;13.50;13.00;;;;;10.10;75.67;101533.63;5079444;28;45799;-60
2021/10/26 07:01:02;;;;;;;;;20.00;13.00;;;;;10.14;76.10;101538.66;5078890;27;56595;-60
2021/10/26 07:03:27;;;;;;;;;16.25;12.50;;;;;10.15;76.19;101530.66;5079401;27;45320;-60
2021/10/26 07:05:52;;;;;;;;;17.25;12.25;;;;;10.19;75.63;101544.44;5078018;28;68471;-60
2021/10/26 07:08:18;;;;;;;;;17.50;16.75;;;;;10.21;75.97;101538.13;5077904;28;66525;-60
2021/10/26 07:10:43;;;;;;;;;16.75;14.25;;;;;10.24;75.61;101543.16;5078382;28;60225;-60
2021/10/26 07:13:09;;;;;;;;;18.75;13.50;;;;;10.26;75.70;101537.81;5079236;27;45638;-60
2021/10/26 07:15:34;;;;;;;;;11.75;10.25;;;;;10.28;75.47;101540.31;5078265;28;70556;-60
2021/10/26 07:18:00;;;;;;;;;12.25;11.25;;;;;10.26;75.59;101556.19;5078142;28;67294;-60
2021/10/26 07:20:25;;;;;;;;;14.75;11.25;;;;;10.25;75.28;101568.47;5079140;28;45365;-60
2021/10/26 07:22:52;;;;;;;;;11.25;8.75;;;;;10.23;75.21;101573.00;5079077;28;45257;-60
2021/10/26 07:25:17;;;;;;;;;14.25;10.75;;;;;10.21;75.22;101574.88;5078738;28;46255;-60
2021/10/26 07:27:42;;;;;;;;;12.50;11.00;;;;;10.21;74.96;101579.31;5079042;28;45358;-60
2021/10/26 07:30:10;;;;;;;;;11.25;10.50;;;;;10.18;74.91;101590.03;5078155;27;60545;-60
2021/10/26 07:32:36;;;;;;;;;13.50;10.00;;;;;10.18;75.00;101584.78;5077437;28;45269;-60
2021/10/26 07:35:02;;;;;;;;;11.75;10.00;;;;;10.15;75.07;101596.31;5078484;28;46197;-60
2021/10/26 07:37:37;;;;;;;;;13.00;11.75;;;;;10.16;75.21;101591.94;5078550;27;45350;-60
2021/10/26 07:40:03;;;;;;;;;14.50;11.75;;;;;10.16;75.13;101599.81;5061786;28;45427;-60
2021/10/26 07:42:28;;;;;;;;;15.25;11.50;;;;;10.15;75.35;101604.19;5077359;28;45413;-60
2021/10/26 07:44:54;;;;;;;;;14.75;11.25;;;;;10.18;75.16;101608.41;5077068;28;46063;-60
2021/10/26 07:47:20;;;;;;;;;11.00;7.75;;;;;10.19;75.39;101617.97;5078465;28;45314;-60
2021/10/26 07:49:47;;;;;;;;;11.25;10.00;;;;;10.21;75.14;101613.47;5076915;27;45386;-60
2021/10/26 07:52:12;;;;;;;;;14.00;10.25;;;;;10.23;75.48;101630.78;5077486;27;45327;-60
2021/10/26 07:54:38;;;;;;;;;10.75;9.00;;;;;10.27;75.46;101630.56;5075753;28;61596;-60
2021/10/26 07:57:04;;;;;;;;;11.00;9.50;;;;;10.30;75.53;101631.22;5075882;27;46958;-59
2021/10/26 07:59:30;;;;;;;;;9.25;8.00;;;;;10.33;75.20;101641.47;5076141;27;45369;-59
2021/10/26 08:01:55;;;;;;;;;12.25;10.25;;;;;10.37;75.33;101639.50;5077154;28;45488;-60
2021/10/26 08:04:20;;;;;;;;;10.75;9.25;;;;;10.40;75.87;101636.69;5077202;27;45235;-60
2021/10/26 08:06:46;;;;;;;;;12.00;8.75;;;;;10.44;75.95;101643.41;5075450;28;45447;-60
2021/10/26 08:09:13;;;;;;;;;11.75;10.75;;;;;10.47;75.84;101643.19;5073309;28;45428;-60
2021/10/26 08:11:38;;;;;;;;;12.50;10.00;;;;;10.51;75.89;101643.78;5075706;28;45577;-60
2021/10/26 08:14:04;;;;;;;;;14.00;11.50;;;;;10.54;75.60;101649.69;5075838;27;46366;-60
2021/10/26 08:16:30;;;;;;;;;13.00;9.00;;;;;10.58;75.92;101631.09;5074542;28;45537;-60
2021/10/26 08:18:55;;;;;;;;;10.00;10.00;;;;;10.63;75.82;101628.94;5075328;28;45573;-60
2021/10/26 08:21:21;;;;;;;;;9.75;9.25;;;;;10.66;76.07;101632.22;5074162;28;63775;-60
2021/10/26 08:23:46;;;;;;;;;12.25;10.50;;;;;10.71;76.02;101633.66;5075483;27;68619;-60
2021/10/26 08:26:18;;;;;;;;;13.50;12.75;;;;;10.74;76.13;101634.28;5076746;28;45441;-60
2021/10/26 08:28:44;;;;;;;;;15.50;11.50;;;;;10.78;76.29;101625.22;5075684;28;45359;-59
2021/10/26 08:31:22;;;;;;;;;18.50;12.00;;;;;10.82;75.91;101620.59;5072948;28;45601;-60
2021/10/26 08:34:06;;;;;;;;;15.00;11.50;;;;;10.87;75.83;101623.72;5075363;28;45475;-60
2021/10/26 08:36:33;;;;;;;;;17.75;13.00;;;;;10.91;76.19;101619.91;5074791;28;45432;-59
2021/10/26 08:38:58;;;;;;;;;18.00;15.50;;;;;10.94;76.00;101618.88;5075099;28;45169;-60
2021/10/26 08:41:26;;;;;;;;;16.75;14.25;;;;;10.97;76.00;101624.72;5075172;27;45237;-60
2021/10/26 08:43:51;;;;;;;;;13.75;11.50;;;;;11.01;76.21;101620.09;5074095;28;46648;-60
2021/10/26 08:46:16;;;;;;;;;16.75;13.00;;;;;11.07;76.35;101627.53;5073896;28;67406;-60
2021/10/26 08:48:42;;;;;;;;;16.50;15.50;;;;;11.10;76.27;101627.31;5073849;27;45864;-60
2021/10/26 08:51:07;;;;;;;;;15.25;11.50;;;;;11.16;76.20;101635.69;5055694;28;63284;-60
2021/10/26 08:53:33;;;;;;;;;18.00;15.25;;;;;11.19;75.88;101638.94;5070758;28;46172;-59
2021/10/26 08:56:00;;;;;;;;;22.25;14.25;;;;;11.24;76.34;101647.34;5073373;28;45519;-60
2021/10/26 08:58:26;;;;;;;;;20.50;16.75;;;;;11.27;75.55;101641.00;5072542;27;45452;-60
2021/10/26 09:00:55;;;;;;;;;20.00;14.00;;;;;11.32;75.87;101633.59;5073967;27;45623;-60
2021/10/26 09:03:22;;;;;;;;;21.25;14.50;;;;;11.36;75.40;101629.78;5069787;28;46215;-60
2021/10/26 09:05:48;;;;;;;;;21.00;17.00;;;;;11.40;75.36;101625.13;5071057;28;46029;-60
2021/10/26 09:08:14;;;;;;;;;19.75;18.00;;;;;11.44;75.72;101626.59;5073975;27;45629;-60
2021/10/26 09:10:39;;;;;;;;;21.50;16.75;;;;;11.48;75.35;101628.03;5075000;28;45464;-60
2021/10/26 09:18:44;;;;;;;;;24.50;18.75;;;;;11.65;75.49;101641.72;5068112;28;45273;-60
2021/10/26 09:21:29;;;;;;;;;21.00;18.25;;;;;11.70;75.37;101645.69;5074609;28;45384;-60
2021/10/26 09:23:57;;;;;;;;;19.25;18.25;;;;;11.77;74.99;101639.94;5074629;28;45539;-59
2021/10/26 09:26:42;;;;;;;;;22.75;15.75;;;;;11.82;75.35;101641.28;5073400;28;48994;-60
2021/10/26 09:29:07;;;;;;;;;24.25;20.00;;;;;11.90;75.11;101643.34;5070022;28;45594;-60
2021/10/26 09:31:32;;;;;;;;;20.50;19.00;;;;;11.97;75.16;101644.53;5074430;28;56790;-59
2021/10/26 09:34:03;;;;;;;;;19.00;17.25;;;;;12.04;74.47;101646.75;5074546;27;45425;-60
2021/10/26 09:36:37;;;;;;;;;26.00;20.50;;;;;12.10;74.75;101639.19;5072898;28;45410;-60
2021/10/26 09:39:02;;;;;;;;;22.50;19.25;;;;;12.13;74.21;101628.41;5073434;27;45500;-60
2021/10/26 09:41:28;;;;;;;;;21.00;19.00;;;;;12.20;74.19;101622.66;5073855;28;45432;-60
2021/10/26 09:44:13;;;;;;;;;21.00;17.75;;;;;12.29;73.82;101622.78;5071348;28;68839;-60
2021/10/26 09:46:40;;;;;;;;;21.25;15.25;;;;;12.39;73.78;101624.69;5074261;27;45531;-60
2021/10/26 09:49:19;;;;;;;;;18.50;17.75;;;;;12.47;73.42;101619.66;5071447;27;45503;-60
2021/10/26 09:51:45;;;;;;;;;15.25;13.50;;;;;12.57;73.20;101615.34;5072596;28;45305;-60
2021/10/26 09:54:16;;;;;;;;;22.00;13.50;;;;;12.70;72.95;101614.34;5055032;28;46056;-60
2021/10/26 09:57:00;;;;;;;;;15.75;14.25;;;;;12.89;73.02;101609.25;5073110;28;45832;-60
2021/10/26 09:59:26;;;;;;;;;12.25;11.75;;;;;13.14;71.94;101620.44;5072795;28;45491;-60
2021/10/26 10:01:52;;;;;;;;;14.75;12.75;;;;;13.35;71.27;101630.19;5073567;27;55194;-60
2021/10/26 10:04:31;;;;;;;;;15.75;12.25;;;;;13.51;71.00;101632.44;5073721;28;46457;-60
2021/10/26 10:06:57;;;;;;;;;13.00;11.25;;;;;13.62;71.25;101631.53;5069598;27;45506;-60
2021/10/26 10:09:22;;;;;;;;;12.00;11.00;;;;;13.72;70.78;101637.72;5070083;28;45523;-60
2021/10/26 10:12:04;;;;;;;;;15.00;11.00;;;;;13.84;70.60;101643.75;5073408;28;45551;-60
2021/10/26 10:14:30;;;;;;;;;12.00;11.75;;;;;13.93;69.88;101634.19;5072115;28;46209;-60
2021/10/26 10:16:55;;;;;;;;;15.25;13.00;;;;;14.08;69.91;101635.53;5072195;28;45466;-60
2021/10/26 10:19:21;;;;;;;;;30.00;23.50;;;;;14.29;69.20;101639.09;5071165;28;45756;-61
2021/10/26 10:21:50;;;;;;;;;22.75;18.25;;;;;14.51;69.27;101640.69;5069601;27;45433;-60
2021/10/26 10:24:16;;;;;;;;;17.25;15.50;;;;;14.71;68.28;101644.25;5073306;28;46515;-60
2021/10/26 10:26:41;;;;;;;;;51.75;42.25;;;;;14.87;67.22;101648.19;5055382;28;45487;-60
2021/10/26 10:29:07;;;;;;;;;26.00;24.75;;;;;15.05;67.04;101638.59;5053900;28;61531;-60
2021/10/26 10:31:32;;;;;;;;;17.00;15.25;;;;;15.22;66.16;101637.06;5072689;28;45379;-60
2021/10/26 10:33:59;;;;;;;;;16.00;14.75;;;;;15.40;65.81;101639.00;5072107;27;45988;-61
2021/10/26 10:36:25;;;;;;;;;29.00;26.25;;;;;15.62;65.88;101637.03;5073216;28;46047;-61
2021/10/26 10:38:51;;;;;;;;;34.25;31.25;;;;;15.85;65.25;101635.72;5070026;28;62732;-61
2021/10/26 10:41:32;;;;;;;;;23.50;21.50;;;;;16.08;63.89;101632.72;5055457;28;45477;-61
2021/10/26 10:44:01;;;;;;;;;33.25;26.25;;;;;16.28;63.21;101630.84;5072914;28;47394;-61
2021/10/26 10:46:47;;;;;;;;;25.50;24.50;;;;;16.49;62.67;101628.91;5073244;28;45439;-60
2021/10/26 10:49:18;;;;;;;;;29.50;28.00;;;;;16.67;62.33;101623.66;5072144;28;45463;-61
2021/10/26 10:52:04;;;;;;;;;18.50;18.50;;;;;16.85;61.17;101628.97;5072035;27;45684;-61
2021/10/26 10:54:53;;;;;;;;;16.25;14.50;;;;;16.99;60.27;101633.78;5072216;28;47048;-61
2021/10/26 10:57:20;;;;;;;;;11.00;10.00;;;;;17.14;60.23;101626.13;5071398;28;45858;-61
2021/10/26 10:59:47;;;;;;;;;13.25;10.50;;;;;17.32;59.93;101626.13;5072002;27;45485;-61
2021/10/26 11:02:18;;;;;;;;;8.25;7.75;;;;;17.49;59.63;101632.38;5075259;27;45528;-61
2021/10/26 11:04:43;;;;;;;;;7.75;7.00;;;;;17.68;59.24;101638.50;5074887;28;45463;-61
2021/10/26 11:07:09;;;;;;;;;9.75;8.00;;;;;17.88;58.54;101630.28;5074520;27;67318;-61
2021/10/26 11:09:34;;;;;;;;;7.00;6.00;;;;;18.02;57.53;101634.22;5074046;28;45458;-61
2021/10/26 11:12:06;;;;;;;;;8.00;6.00;;;;;18.08;57.61;101636.25;5074194;28;61315;-61
2021/10/26 11:14:41;;;;;;;;;9.00;8.00;;;;;18.04;57.56;101635.72;5075244;28;45650;-61
2021/10/26 11:17:35;;;;;;;;;9.00;9.00;;;;;17.96;57.22;101633.00;5075318;28;45611;-61
2021/10/26 11:20:01;;;;;;;;;8.00;5.75;;;;;17.88;57.36;101644.44;5075383;28;45479;-61